sensor_id;sensor_type;location;lat;lon;timestamp;temperature;humidity
59975;DHT22;62136;-35.664;-63.766;2022-07-23T00:00:41;17.20;44.10
59975;DHT22;62136;-35.664;-63.766;2022-07-23T00:03:08;17.20;44.10
59975;DHT22;62136;-35.664;-63.766;2022-07-23T00:05:36;17.20;44.20
59975;DHT22;62136;-35.664;-63.766;2022-07-23T00:08:03;17.20;44.20
59975;DHT22;62136;-35.664;-63.766;2022-07-23T00:10:30;17.20;44.20
59975;DHT22;62136;-35.664;-63.766;2022-07-23T00:12:57;17.20;44.20
59975;DHT22;62136;-35.664;-63.766;2022-07-23T00:15:24;17.10;44.20
59975;DHT22;62136;-35.664;-63.766;2022-07-23T00:17:51;17.20;44.30
59975;DHT22;62136;-35.664;-63.766;2022-07-23T00:20:18;17.20;44.30
59975;DHT22;62136;-35.664;-63.766;2022-07-23T00:22:52;17.10;44.30
59975;DHT22;62136;-35.664;-63.766;2022-07-23T00:25:20;17.10;44.30
59975;DHT22;62136;-35.664;-63.766;2022-07-23T00:27:48;17.10;44.30
59975;DHT22;62136;-35.664;-63.766;2022-07-23T00:30:15;17.10;44.30
59975;DHT22;62136;-35.664;-63.766;2022-07-23T00:32:54;17.10;44.40
59975;DHT22;62136;-35.664;-63.766;2022-07-23T00:35:24;17.10;44.50
59975;DHT22;62136;-35.664;-63.766;2022-07-23T00:37:53;17.10;44.50
59975;DHT22;62136;-35.664;-63.766;2022-07-23T00:40:20;17.10;44.50
59975;DHT22;62136;-35.664;-63.766;2022-07-23T00:42:47;17.10;44.60
59975;DHT22;62136;-35.664;-63.766;2022-07-23T00:45:14;17.10;44.60
59975;DHT22;62136;-35.664;-63.766;2022-07-23T00:47:42;17.10;44.60
59975;DHT22;62136;-35.664;-63.766;2022-07-23T00:50:09;17.00;44.60
59975;DHT22;62136;-35.664;-63.766;2022-07-23T00:55:04;17.10;44.70
59975;DHT22;62136;-35.664;-63.766;2022-07-23T00:57:31;17.00;45.20
59975;DHT22;62136;-35.664;-63.766;2022-07-23T00:59:59;17.00;44.80
59975;DHT22;62136;-35.664;-63.766;2022-07-23T01:02:26;17.00;44.80
59975;DHT22;62136;-35.664;-63.766;2022-07-23T01:04:54;17.00;44.90
59975;DHT22;62136;-35.664;-63.766;2022-07-23T01:07:22;17.00;44.90
59975;DHT22;62136;-35.664;-63.766;2022-07-23T01:09:51;17.00;44.90
59975;DHT22;62136;-35.664;-63.766;2022-07-23T01:12:18;16.90;45.00
59975;DHT22;62136;-35.664;-63.766;2022-07-23T01:14:45;17.00;45.00
59975;DHT22;62136;-35.664;-63.766;2022-07-23T01:17:20;16.90;45.10
59975;DHT22;62136;-35.664;-63.766;2022-07-23T01:19:47;16.90;45.00
59975;DHT22;62136;-35.664;-63.766;2022-07-23T01:22:15;16.90;45.10
59975;DHT22;62136;-35.664;-63.766;2022-07-23T01:24:45;16.90;45.10
59975;DHT22;62136;-35.664;-63.766;2022-07-23T01:27:12;16.90;45.20
59975;DHT22;62136;-35.664;-63.766;2022-07-23T01:29:39;16.90;45.20
59975;DHT22;62136;-35.664;-63.766;2022-07-23T01:32:07;16.90;45.60
59975;DHT22;62136;-35.664;-63.766;2022-07-23T01:34:34;16.90;45.30
59975;DHT22;62136;-35.664;-63.766;2022-07-23T01:37:01;16.90;45.30
59975;DHT22;62136;-35.664;-63.766;2022-07-23T01:39:28;16.90;45.40
59975;DHT22;62136;-35.664;-63.766;2022-07-23T01:41:55;16.90;45.40
59975;DHT22;62136;-35.664;-63.766;2022-07-23T01:44:22;16.90;45.40
59975;DHT22;62136;-35.664;-63.766;2022-07-23T01:46:49;16.90;45.40
59975;DHT22;62136;-35.664;-63.766;2022-07-23T01:49:16;16.90;45.50
59975;DHT22;62136;-35.664;-63.766;2022-07-23T01:51:43;16.80;45.50
59975;DHT22;62136;-35.664;-63.766;2022-07-23T01:54:32;16.80;45.60
59975;DHT22;62136;-35.664;-63.766;2022-07-23T01:57:00;16.80;45.60
59975;DHT22;62136;-35.664;-63.766;2022-07-23T01:59:27;16.80;45.60
59975;DHT22;62136;-35.664;-63.766;2022-07-23T02:01:55;16.80;45.60
59975;DHT22;62136;-35.664;-63.766;2022-07-23T02:04:24;16.80;45.60
59975;DHT22;62136;-35.664;-63.766;2022-07-23T02:06:55;16.80;45.70
59975;DHT22;62136;-35.664;-63.766;2022-07-23T02:09:22;16.80;45.70
59975;DHT22;62136;-35.664;-63.766;2022-07-23T02:11:49;16.70;45.80
59975;DHT22;62136;-35.664;-63.766;2022-07-23T02:14:16;16.70;45.80
59975;DHT22;62136;-35.664;-63.766;2022-07-23T02:16:43;16.70;45.80
59975;DHT22;62136;-35.664;-63.766;2022-07-23T02:19:10;16.70;45.90
59975;DHT22;62136;-35.664;-63.766;2022-07-23T02:21:37;16.70;46.00
59975;DHT22;62136;-35.664;-63.766;2022-07-23T02:24:05;16.70;45.90
59975;DHT22;62136;-35.664;-63.766;2022-07-23T02:26:32;16.70;45.90
59975;DHT22;62136;-35.664;-63.766;2022-07-23T02:29:02;16.70;46.00
59975;DHT22;62136;-35.664;-63.766;2022-07-23T02:31:30;16.70;46.00
59975;DHT22;62136;-35.664;-63.766;2022-07-23T02:33:57;16.70;46.10
59975;DHT22;62136;-35.664;-63.766;2022-07-23T02:36:24;16.70;46.10
59975;DHT22;62136;-35.664;-63.766;2022-07-23T02:38:54;16.70;46.10
59975;DHT22;62136;-35.664;-63.766;2022-07-23T02:41:22;16.70;46.20
59975;DHT22;62136;-35.664;-63.766;2022-07-23T02:43:49;16.70;46.10
59975;DHT22;62136;-35.664;-63.766;2022-07-23T02:46:16;16.60;46.10
59975;DHT22;62136;-35.664;-63.766;2022-07-23T02:48:43;16.60;46.10
59975;DHT22;62136;-35.664;-63.766;2022-07-23T02:51:13;16.70;46.20
59975;DHT22;62136;-35.664;-63.766;2022-07-23T02:53:40;16.60;46.20
59975;DHT22;62136;-35.664;-63.766;2022-07-23T02:56:10;16.60;46.20
59975;DHT22;62136;-35.664;-63.766;2022-07-23T02:58:37;16.60;46.20
59975;DHT22;62136;-35.664;-63.766;2022-07-23T03:01:04;16.60;46.30
59975;DHT22;62136;-35.664;-63.766;2022-07-23T03:03:31;16.60;46.30
59975;DHT22;62136;-35.664;-63.766;2022-07-23T03:05:59;16.60;46.20
59975;DHT22;62136;-35.664;-63.766;2022-07-23T03:08:29;16.60;46.40
59975;DHT22;62136;-35.664;-63.766;2022-07-23T03:11:20;16.60;46.40
59975;DHT22;62136;-35.664;-63.766;2022-07-23T03:13:47;16.60;46.40
59975;DHT22;62136;-35.664;-63.766;2022-07-23T03:16:14;16.60;46.40
59975;DHT22;62136;-35.664;-63.766;2022-07-23T03:18:41;16.60;46.50
59975;DHT22;62136;-35.664;-63.766;2022-07-23T03:21:14;16.50;46.50
59975;DHT22;62136;-35.664;-63.766;2022-07-23T03:23:41;16.60;46.30
59975;DHT22;62136;-35.664;-63.766;2022-07-23T03:26:08;16.60;46.40
59975;DHT22;62136;-35.664;-63.766;2022-07-23T03:28:35;16.50;46.50
59975;DHT22;62136;-35.664;-63.766;2022-07-23T03:31:02;16.50;46.40
59975;DHT22;62136;-35.664;-63.766;2022-07-23T03:33:29;16.50;46.50
59975;DHT22;62136;-35.664;-63.766;2022-07-23T03:35:56;16.50;46.50
59975;DHT22;62136;-35.664;-63.766;2022-07-23T03:38:23;16.50;47.10
59975;DHT22;62136;-35.664;-63.766;2022-07-23T03:40:50;16.50;46.70
59975;DHT22;62136;-35.664;-63.766;2022-07-23T03:43:17;16.50;46.80
59975;DHT22;62136;-35.664;-63.766;2022-07-23T03:45:44;16.50;46.60
59975;DHT22;62136;-35.664;-63.766;2022-07-23T03:48:11;16.50;46.80
59975;DHT22;62136;-35.664;-63.766;2022-07-23T03:50:38;16.50;46.80
59975;DHT22;62136;-35.664;-63.766;2022-07-23T03:53:05;16.50;47.00
59975;DHT22;62136;-35.664;-63.766;2022-07-23T03:55:32;16.50;46.90
59975;DHT22;62136;-35.664;-63.766;2022-07-23T03:57:59;16.50;46.80
59975;DHT22;62136;-35.664;-63.766;2022-07-23T04:00:26;16.50;47.10
59975;DHT22;62136;-35.664;-63.766;2022-07-23T04:02:59;16.50;47.10
59975;DHT22;62136;-35.664;-63.766;2022-07-23T04:05:26;16.40;47.00
59975;DHT22;62136;-35.664;-63.766;2022-07-23T04:07:53;16.40;47.10
59975;DHT22;62136;-35.664;-63.766;2022-07-23T04:10:20;16.40;47.20
59975;DHT22;62136;-35.664;-63.766;2022-07-23T04:12:47;16.40;47.20
59975;DHT22;62136;-35.664;-63.766;2022-07-23T04:15:14;16.40;47.20
59975;DHT22;62136;-35.664;-63.766;2022-07-23T04:17:44;16.40;47.20
59975;DHT22;62136;-35.664;-63.766;2022-07-23T04:20:13;16.40;46.90
59975;DHT22;62136;-35.664;-63.766;2022-07-23T04:22:40;16.40;47.40
59975;DHT22;62136;-35.664;-63.766;2022-07-23T04:25:07;16.40;47.30
59975;DHT22;62136;-35.664;-63.766;2022-07-23T04:27:34;16.30;47.30
59975;DHT22;62136;-35.664;-63.766;2022-07-23T04:30:01;16.30;47.30
59975;DHT22;62136;-35.664;-63.766;2022-07-23T04:32:31;16.30;47.30
59975;DHT22;62136;-35.664;-63.766;2022-07-23T04:34:58;16.30;47.00
59975;DHT22;62136;-35.664;-63.766;2022-07-23T04:37:25;16.40;47.50
59975;DHT22;62136;-35.664;-63.766;2022-07-23T04:39:52;16.30;46.80
59975;DHT22;62136;-35.664;-63.766;2022-07-23T04:42:19;16.30;47.40
59975;DHT22;62136;-35.664;-63.766;2022-07-23T04:44:46;16.30;47.50
59975;DHT22;62136;-35.664;-63.766;2022-07-23T04:47:13;16.30;47.50
59975;DHT22;62136;-35.664;-63.766;2022-07-23T04:49:40;16.30;47.60
59975;DHT22;62136;-35.664;-63.766;2022-07-23T04:52:07;16.30;47.60
59975;DHT22;62136;-35.664;-63.766;2022-07-23T04:54:34;16.30;47.60
59975;DHT22;62136;-35.664;-63.766;2022-07-23T04:57:01;16.20;47.60
59975;DHT22;62136;-35.664;-63.766;2022-07-23T04:59:28;16.20;47.20
59975;DHT22;62136;-35.664;-63.766;2022-07-23T05:01:55;16.20;47.30
59975;DHT22;62136;-35.664;-63.766;2022-07-23T05:04:22;16.20;47.50
59975;DHT22;62136;-35.664;-63.766;2022-07-23T05:06:49;16.20;47.40
59975;DHT22;62136;-35.664;-63.766;2022-07-23T05:09:16;16.20;47.50
59975;DHT22;62136;-35.664;-63.766;2022-07-23T05:11:43;16.20;47.70
59975;DHT22;62136;-35.664;-63.766;2022-07-23T05:14:10;16.20;47.60
59975;DHT22;62136;-35.664;-63.766;2022-07-23T05:16:39;16.20;47.70
59975;DHT22;62136;-35.664;-63.766;2022-07-23T05:19:06;16.10;47.70
59975;DHT22;62136;-35.664;-63.766;2022-07-23T05:21:33;16.20;47.70
59975;DHT22;62136;-35.664;-63.766;2022-07-23T05:24:00;16.20;47.60
59975;DHT22;62136;-35.664;-63.766;2022-07-23T05:26:27;16.20;47.50
59975;DHT22;62136;-35.664;-63.766;2022-07-23T05:28:54;16.10;47.70
59975;DHT22;62136;-35.664;-63.766;2022-07-23T05:31:21;16.10;47.80
59975;DHT22;62136;-35.664;-63.766;2022-07-23T05:33:48;16.10;47.70
59975;DHT22;62136;-35.664;-63.766;2022-07-23T05:36:15;16.10;47.70
59975;DHT22;62136;-35.664;-63.766;2022-07-23T05:38:42;16.10;47.20
59975;DHT22;62136;-35.664;-63.766;2022-07-23T05:41:09;16.10;47.80
59975;DHT22;62136;-35.664;-63.766;2022-07-23T05:43:36;16.10;47.90
59975;DHT22;62136;-35.664;-63.766;2022-07-23T05:46:03;16.00;47.60
59975;DHT22;62136;-35.664;-63.766;2022-07-23T05:48:30;16.10;47.40
59975;DHT22;62136;-35.664;-63.766;2022-07-23T05:51:04;16.10;47.50
59975;DHT22;62136;-35.664;-63.766;2022-07-23T05:54:17;16.00;47.80
59975;DHT22;62136;-35.664;-63.766;2022-07-23T05:56:55;16.00;47.90
59975;DHT22;62136;-35.664;-63.766;2022-07-23T05:59:21;16.00;47.80
59975;DHT22;62136;-35.664;-63.766;2022-07-23T06:01:48;16.00;47.60
59975;DHT22;62136;-35.664;-63.766;2022-07-23T06:04:15;16.00;47.90
59975;DHT22;62136;-35.664;-63.766;2022-07-23T06:06:42;16.00;47.90
59975;DHT22;62136;-35.664;-63.766;2022-07-23T06:09:10;16.00;47.90
59975;DHT22;62136;-35.664;-63.766;2022-07-23T06:11:40;16.00;47.90
59975;DHT22;62136;-35.664;-63.766;2022-07-23T06:14:07;16.00;47.60
59975;DHT22;62136;-35.664;-63.766;2022-07-23T06:16:34;16.00;48.00
59975;DHT22;62136;-35.664;-63.766;2022-07-23T06:19:01;15.90;47.90
59975;DHT22;62136;-35.664;-63.766;2022-07-23T06:21:28;15.90;47.90
59975;DHT22;62136;-35.664;-63.766;2022-07-23T06:23:55;15.90;47.60
59975;DHT22;62136;-35.664;-63.766;2022-07-23T06:26:22;15.90;47.90
59975;DHT22;62136;-35.664;-63.766;2022-07-23T06:28:49;15.90;48.00
59975;DHT22;62136;-35.664;-63.766;2022-07-23T06:31:16;15.90;47.90
59975;DHT22;62136;-35.664;-63.766;2022-07-23T06:33:43;15.90;47.80
59975;DHT22;62136;-35.664;-63.766;2022-07-23T06:36:10;15.90;48.00
59975;DHT22;62136;-35.664;-63.766;2022-07-23T06:38:37;15.90;48.00
59975;DHT22;62136;-35.664;-63.766;2022-07-23T06:41:05;15.80;47.80
59975;DHT22;62136;-35.664;-63.766;2022-07-23T06:43:32;15.80;47.70
59975;DHT22;62136;-35.664;-63.766;2022-07-23T06:45:59;15.90;48.40
59975;DHT22;62136;-35.664;-63.766;2022-07-23T06:48:26;15.80;48.00
59975;DHT22;62136;-35.664;-63.766;2022-07-23T06:50:54;15.80;48.10
59975;DHT22;62136;-35.664;-63.766;2022-07-23T06:53:21;15.80;47.90
59975;DHT22;62136;-35.664;-63.766;2022-07-23T06:55:48;15.80;48.10
59975;DHT22;62136;-35.664;-63.766;2022-07-23T06:58:15;15.80;48.10
59975;DHT22;62136;-35.664;-63.766;2022-07-23T07:00:42;15.80;48.20
59975;DHT22;62136;-35.664;-63.766;2022-07-23T07:03:09;15.80;48.10
59975;DHT22;62136;-35.664;-63.766;2022-07-23T07:05:36;15.80;48.20
59975;DHT22;62136;-35.664;-63.766;2022-07-23T07:08:06;15.80;47.70
59975;DHT22;62136;-35.664;-63.766;2022-07-23T07:10:33;15.80;48.20
59975;DHT22;62136;-35.664;-63.766;2022-07-23T07:13:00;15.70;48.10
59975;DHT22;62136;-35.664;-63.766;2022-07-23T07:15:27;15.70;48.30
59975;DHT22;62136;-35.664;-63.766;2022-07-23T07:17:54;15.70;48.20
59975;DHT22;62136;-35.664;-63.766;2022-07-23T07:20:21;15.70;48.10
59975;DHT22;62136;-35.664;-63.766;2022-07-23T07:22:50;15.70;48.20
59975;DHT22;62136;-35.664;-63.766;2022-07-23T07:25:18;15.70;48.20
59975;DHT22;62136;-35.664;-63.766;2022-07-23T07:27:46;15.70;48.40
59975;DHT22;62136;-35.664;-63.766;2022-07-23T07:30:13;15.70;48.00
59975;DHT22;62136;-35.664;-63.766;2022-07-23T07:32:40;15.70;48.30
59975;DHT22;62136;-35.664;-63.766;2022-07-23T07:35:08;15.70;48.30
59975;DHT22;62136;-35.664;-63.766;2022-07-23T07:37:35;15.70;48.30
59975;DHT22;62136;-35.664;-63.766;2022-07-23T07:40:03;15.60;48.20
59975;DHT22;62136;-35.664;-63.766;2022-07-23T07:42:30;15.60;48.40
59975;DHT22;62136;-35.664;-63.766;2022-07-23T07:44:58;15.60;48.40
59975;DHT22;62136;-35.664;-63.766;2022-07-23T07:47:25;15.60;48.40
59975;DHT22;62136;-35.664;-63.766;2022-07-23T07:49:52;15.60;48.40
59975;DHT22;62136;-35.664;-63.766;2022-07-23T07:52:19;15.60;48.40
59975;DHT22;62136;-35.664;-63.766;2022-07-23T07:54:46;15.60;48.50
59975;DHT22;62136;-35.664;-63.766;2022-07-23T07:57:13;15.60;48.40
59975;DHT22;62136;-35.664;-63.766;2022-07-23T07:59:40;15.60;48.50
59975;DHT22;62136;-35.664;-63.766;2022-07-23T08:02:07;15.60;48.50
59975;DHT22;62136;-35.664;-63.766;2022-07-23T08:04:35;15.60;48.50
59975;DHT22;62136;-35.664;-63.766;2022-07-23T08:07:02;15.60;48.30
59975;DHT22;62136;-35.664;-63.766;2022-07-23T08:09:29;15.50;48.50
59975;DHT22;62136;-35.664;-63.766;2022-07-23T08:11:56;15.50;48.50
59975;DHT22;62136;-35.664;-63.766;2022-07-23T08:14:23;15.50;48.50
59975;DHT22;62136;-35.664;-63.766;2022-07-23T08:16:50;15.50;48.60
59975;DHT22;62136;-35.664;-63.766;2022-07-23T08:19:17;15.50;48.40
59975;DHT22;62136;-35.664;-63.766;2022-07-23T08:21:44;15.50;48.60
59975;DHT22;62136;-35.664;-63.766;2022-07-23T08:24:13;15.50;48.70
59975;DHT22;62136;-35.664;-63.766;2022-07-23T08:26:40;15.50;48.70
59975;DHT22;62136;-35.664;-63.766;2022-07-23T08:29:08;15.50;48.80
59975;DHT22;62136;-35.664;-63.766;2022-07-23T08:31:35;15.40;48.70
59975;DHT22;62136;-35.664;-63.766;2022-07-23T08:34:02;15.40;48.80
59975;DHT22;62136;-35.664;-63.766;2022-07-23T08:36:29;15.50;48.80
59975;DHT22;62136;-35.664;-63.766;2022-07-23T08:39:01;15.40;48.80
59975;DHT22;62136;-35.664;-63.766;2022-07-23T08:41:30;15.40;49.00
59975;DHT22;62136;-35.664;-63.766;2022-07-23T08:43:57;15.40;48.80
59975;DHT22;62136;-35.664;-63.766;2022-07-23T08:46:28;15.40;48.90
59975;DHT22;62136;-35.664;-63.766;2022-07-23T08:48:55;15.40;48.80
59975;DHT22;62136;-35.664;-63.766;2022-07-23T08:51:26;15.30;49.00
59975;DHT22;62136;-35.664;-63.766;2022-07-23T08:53:55;15.40;49.00
59975;DHT22;62136;-35.664;-63.766;2022-07-23T08:56:23;15.40;49.10
59975;DHT22;62136;-35.664;-63.766;2022-07-23T08:58:49;15.30;49.10
59975;DHT22;62136;-35.664;-63.766;2022-07-23T09:01:16;15.40;49.30
59975;DHT22;62136;-35.664;-63.766;2022-07-23T09:03:43;15.30;49.20
59975;DHT22;62136;-35.664;-63.766;2022-07-23T09:06:11;15.30;49.30
59975;DHT22;62136;-35.664;-63.766;2022-07-23T09:08:40;15.30;49.30
59975;DHT22;62136;-35.664;-63.766;2022-07-23T09:11:09;15.30;49.40
59975;DHT22;62136;-35.664;-63.766;2022-07-23T09:16:29;15.30;49.60
59975;DHT22;62136;-35.664;-63.766;2022-07-23T09:19:01;15.30;49.70
59975;DHT22;62136;-35.664;-63.766;2022-07-23T09:21:37;15.30;49.60
59975;DHT22;62136;-35.664;-63.766;2022-07-23T09:24:11;15.30;49.70
59975;DHT22;62136;-35.664;-63.766;2022-07-23T09:26:39;15.30;49.70
59975;DHT22;62136;-35.664;-63.766;2022-07-23T09:34:21;15.30;50.10
59975;DHT22;62136;-35.664;-63.766;2022-07-23T09:36:49;15.30;50.10
59975;DHT22;62136;-35.664;-63.766;2022-07-23T09:39:29;15.20;50.00
59975;DHT22;62136;-35.664;-63.766;2022-07-23T09:41:57;15.30;50.20
59975;DHT22;62136;-35.664;-63.766;2022-07-23T09:44:24;15.30;50.20
59975;DHT22;62136;-35.664;-63.766;2022-07-23T09:46:58;15.20;50.30
59975;DHT22;62136;-35.664;-63.766;2022-07-23T09:49:26;15.20;49.80
59975;DHT22;62136;-35.664;-63.766;2022-07-23T09:51:58;15.20;50.20
59975;DHT22;62136;-35.664;-63.766;2022-07-23T09:54:34;15.20;50.40
59975;DHT22;62136;-35.664;-63.766;2022-07-23T09:57:07;15.20;50.30
59975;DHT22;62136;-35.664;-63.766;2022-07-23T09:59:38;15.20;50.60
59975;DHT22;62136;-35.664;-63.766;2022-07-23T10:02:07;15.20;50.60
59975;DHT22;62136;-35.664;-63.766;2022-07-23T10:04:34;15.20;50.70
59975;DHT22;62136;-35.664;-63.766;2022-07-23T10:07:04;15.20;50.60
59975;DHT22;62136;-35.664;-63.766;2022-07-23T10:09:34;15.20;50.40
59975;DHT22;62136;-35.664;-63.766;2022-07-23T10:12:03;15.20;50.70
59975;DHT22;62136;-35.664;-63.766;2022-07-23T10:14:49;15.10;50.80
59975;DHT22;62136;-35.664;-63.766;2022-07-23T10:17:17;15.20;50.90
59975;DHT22;62136;-35.664;-63.766;2022-07-23T10:19:45;15.10;50.80
59975;DHT22;62136;-35.664;-63.766;2022-07-23T10:22:22;15.10;50.90
59975;DHT22;62136;-35.664;-63.766;2022-07-23T10:33:20;15.10;51.20
59975;DHT22;62136;-35.664;-63.766;2022-07-23T10:39:45;15.10;51.40
59975;DHT22;62136;-35.664;-63.766;2022-07-23T10:42:17;15.00;51.30
59975;DHT22;62136;-35.664;-63.766;2022-07-23T10:44:46;15.00;51.50
59975;DHT22;62136;-35.664;-63.766;2022-07-23T10:47:34;15.00;51.50
59975;DHT22;62136;-35.664;-63.766;2022-07-23T10:55:50;15.00;51.50
59975;DHT22;62136;-35.664;-63.766;2022-07-23T10:58:20;15.00;51.50
59975;DHT22;62136;-35.664;-63.766;2022-07-23T11:00:48;15.00;51.60
59975;DHT22;62136;-35.664;-63.766;2022-07-23T11:03:34;15.00;51.60
59975;DHT22;62136;-35.664;-63.766;2022-07-23T11:06:06;15.00;51.70
59975;DHT22;62136;-35.664;-63.766;2022-07-23T11:08:33;15.00;51.60
59975;DHT22;62136;-35.664;-63.766;2022-07-23T11:13:42;15.00;51.80
59975;DHT22;62136;-35.664;-63.766;2022-07-23T11:16:14;15.00;51.90
59975;DHT22;62136;-35.664;-63.766;2022-07-23T11:24:07;14.90;52.10
59975;DHT22;62136;-35.664;-63.766;2022-07-23T11:32:19;14.90;51.90
59975;DHT22;62136;-35.664;-63.766;2022-07-23T11:34:50;14.90;51.70
59975;DHT22;62136;-35.664;-63.766;2022-07-23T11:39:57;14.90;52.00
59975;DHT22;62136;-35.664;-63.766;2022-07-23T11:42:25;14.90;51.80
59975;DHT22;62136;-35.664;-63.766;2022-07-23T11:44:52;14.90;51.80
59975;DHT22;62136;-35.664;-63.766;2022-07-23T11:47:26;14.90;51.70
59975;DHT22;62136;-35.664;-63.766;2022-07-23T11:49:58;14.90;51.90
59975;DHT22;62136;-35.664;-63.766;2022-07-23T11:52:27;14.90;52.30
59975;DHT22;62136;-35.664;-63.766;2022-07-23T11:55:01;14.90;52.10
59975;DHT22;62136;-35.664;-63.766;2022-07-23T11:57:36;14.90;52.40
59975;DHT22;62136;-35.664;-63.766;2022-07-23T12:00:15;14.80;52.10
59975;DHT22;62136;-35.664;-63.766;2022-07-23T12:02:47;14.90;51.80
59975;DHT22;62136;-35.664;-63.766;2022-07-23T12:05:19;14.90;52.50
59975;DHT22;62136;-35.664;-63.766;2022-07-23T12:07:50;14.80;52.20
59975;DHT22;62136;-35.664;-63.766;2022-07-23T12:10:21;14.90;52.10
59975;DHT22;62136;-35.664;-63.766;2022-07-23T12:12:52;14.80;52.40
59975;DHT22;62136;-35.664;-63.766;2022-07-23T12:15:25;14.80;52.10
59975;DHT22;62136;-35.664;-63.766;2022-07-23T12:17:53;14.90;52.40
59975;DHT22;62136;-35.664;-63.766;2022-07-23T12:20:23;14.90;52.50
59975;DHT22;62136;-35.664;-63.766;2022-07-23T12:22:52;14.90;52.10
59975;DHT22;62136;-35.664;-63.766;2022-07-23T12:25:22;14.80;52.40
59975;DHT22;62136;-35.664;-63.766;2022-07-23T12:28:29;14.90;52.50
59975;DHT22;62136;-35.664;-63.766;2022-07-23T12:30:58;14.90;52.40
59975;DHT22;62136;-35.664;-63.766;2022-07-23T12:33:33;14.80;52.50
59975;DHT22;62136;-35.664;-63.766;2022-07-23T12:36:04;14.90;52.60
59975;DHT22;62136;-35.664;-63.766;2022-07-23T12:38:42;14.90;53.00
59975;DHT22;62136;-35.664;-63.766;2022-07-23T12:41:10;14.90;52.50
59975;DHT22;62136;-35.664;-63.766;2022-07-23T12:43:39;14.90;52.70
59975;DHT22;62136;-35.664;-63.766;2022-07-23T12:46:09;14.80;52.60
59975;DHT22;62136;-35.664;-63.766;2022-07-23T12:48:39;14.80;52.60
59975;DHT22;62136;-35.664;-63.766;2022-07-23T12:51:17;14.80;52.70
59975;DHT22;62136;-35.664;-63.766;2022-07-23T12:53:49;14.90;52.70
59975;DHT22;62136;-35.664;-63.766;2022-07-23T12:56:28;14.80;52.70
59975;DHT22;62136;-35.664;-63.766;2022-07-23T12:59:04;14.90;52.70
59975;DHT22;62136;-35.664;-63.766;2022-07-23T13:01:41;14.90;52.70
59975;DHT22;62136;-35.664;-63.766;2022-07-23T13:04:17;14.90;52.70
59975;DHT22;62136;-35.664;-63.766;2022-07-23T13:06:51;14.90;52.70
59975;DHT22;62136;-35.664;-63.766;2022-07-23T13:09:21;14.90;52.70
59975;DHT22;62136;-35.664;-63.766;2022-07-23T13:11:49;14.90;52.70
59975;DHT22;62136;-35.664;-63.766;2022-07-23T13:14:18;14.90;52.80
59975;DHT22;62136;-35.664;-63.766;2022-07-23T13:16:46;15.00;52.70
59975;DHT22;62136;-35.664;-63.766;2022-07-23T13:19:14;15.00;52.80
59975;DHT22;62136;-35.664;-63.766;2022-07-23T13:21:41;15.00;52.70
59975;DHT22;62136;-35.664;-63.766;2022-07-23T13:24:10;15.00;52.70
59975;DHT22;62136;-35.664;-63.766;2022-07-23T13:26:38;15.00;52.70
59975;DHT22;62136;-35.664;-63.766;2022-07-23T13:29:06;15.10;52.80
59975;DHT22;62136;-35.664;-63.766;2022-07-23T13:31:33;15.10;52.80
59975;DHT22;62136;-35.664;-63.766;2022-07-23T13:34:02;15.10;52.80
59975;DHT22;62136;-35.664;-63.766;2022-07-23T13:36:30;15.10;52.80
59975;DHT22;62136;-35.664;-63.766;2022-07-23T13:38:57;15.20;52.70
59975;DHT22;62136;-35.664;-63.766;2022-07-23T13:41:24;15.20;52.70
59975;DHT22;62136;-35.664;-63.766;2022-07-23T13:43:51;15.20;52.70
59975;DHT22;62136;-35.664;-63.766;2022-07-23T13:46:18;15.20;52.80
59975;DHT22;62136;-35.664;-63.766;2022-07-23T13:48:45;15.20;52.70
59975;DHT22;62136;-35.664;-63.766;2022-07-23T13:51:12;15.30;52.70
59975;DHT22;62136;-35.664;-63.766;2022-07-23T13:53:39;15.30;52.80
59975;DHT22;62136;-35.664;-63.766;2022-07-23T13:56:06;15.30;52.70
59975;DHT22;62136;-35.664;-63.766;2022-07-23T13:58:33;15.30;52.80
59975;DHT22;62136;-35.664;-63.766;2022-07-23T14:01:00;15.30;52.70
59975;DHT22;62136;-35.664;-63.766;2022-07-23T14:03:27;15.30;52.70
59975;DHT22;62136;-35.664;-63.766;2022-07-23T14:05:54;15.30;52.60
59975;DHT22;62136;-35.664;-63.766;2022-07-23T14:08:21;15.40;52.60
59975;DHT22;62136;-35.664;-63.766;2022-07-23T14:10:49;15.40;52.50
59975;DHT22;62136;-35.664;-63.766;2022-07-23T14:13:16;15.40;52.80
59975;DHT22;62136;-35.664;-63.766;2022-07-23T14:15:43;15.40;52.60
59975;DHT22;62136;-35.664;-63.766;2022-07-23T14:18:10;15.40;52.60
59975;DHT22;62136;-35.664;-63.766;2022-07-23T14:20:37;15.40;52.60
59975;DHT22;62136;-35.664;-63.766;2022-07-23T14:23:04;15.50;52.70
59975;DHT22;62136;-35.664;-63.766;2022-07-23T14:25:31;15.40;52.60
59975;DHT22;62136;-35.664;-63.766;2022-07-23T14:27:58;15.40;52.60
59975;DHT22;62136;-35.664;-63.766;2022-07-23T14:30:25;15.50;52.70
59975;DHT22;62136;-35.664;-63.766;2022-07-23T14:32:52;15.50;52.80
59975;DHT22;62136;-35.664;-63.766;2022-07-23T14:35:19;15.50;52.80
59975;DHT22;62136;-35.664;-63.766;2022-07-23T14:37:46;15.50;52.60
59975;DHT22;62136;-35.664;-63.766;2022-07-23T14:40:14;15.50;52.70
59975;DHT22;62136;-35.664;-63.766;2022-07-23T14:42:41;15.50;52.80
59975;DHT22;62136;-35.664;-63.766;2022-07-23T14:45:08;15.50;52.70
59975;DHT22;62136;-35.664;-63.766;2022-07-23T14:47:35;15.60;52.70
59975;DHT22;62136;-35.664;-63.766;2022-07-23T14:50:09;15.60;52.90
59975;DHT22;62136;-35.664;-63.766;2022-07-23T14:53:02;15.60;52.70
59975;DHT22;62136;-35.664;-63.766;2022-07-23T14:55:31;15.50;53.00
59975;DHT22;62136;-35.664;-63.766;2022-07-23T14:57:58;15.60;53.00
59975;DHT22;62136;-35.664;-63.766;2022-07-23T15:00:26;15.60;53.10
59975;DHT22;62136;-35.664;-63.766;2022-07-23T15:02:53;15.60;52.80
59975;DHT22;62136;-35.664;-63.766;2022-07-23T15:05:20;15.70;52.70
59975;DHT22;62136;-35.664;-63.766;2022-07-23T15:07:47;15.70;52.70
59975;DHT22;62136;-35.664;-63.766;2022-07-23T15:10:15;15.70;52.50
59975;DHT22;62136;-35.664;-63.766;2022-07-23T15:12:42;15.70;52.60
59975;DHT22;62136;-35.664;-63.766;2022-07-23T15:15:09;15.80;52.60
59975;DHT22;62136;-35.664;-63.766;2022-07-23T15:17:36;15.80;52.60
59975;DHT22;62136;-35.664;-63.766;2022-07-23T15:20:04;15.80;52.40
59975;DHT22;62136;-35.664;-63.766;2022-07-23T15:22:31;15.90;52.50
59975;DHT22;62136;-35.664;-63.766;2022-07-23T15:24:58;15.90;52.60
59975;DHT22;62136;-35.664;-63.766;2022-07-23T15:27:25;15.90;52.30
59975;DHT22;62136;-35.664;-63.766;2022-07-23T15:29:53;15.90;52.40
59975;DHT22;62136;-35.664;-63.766;2022-07-23T15:32:20;16.00;52.20
59975;DHT22;62136;-35.664;-63.766;2022-07-23T15:34:51;16.00;52.20
59975;DHT22;62136;-35.664;-63.766;2022-07-23T15:37:18;16.00;52.40
59975;DHT22;62136;-35.664;-63.766;2022-07-23T15:39:45;16.00;52.30
59975;DHT22;62136;-35.664;-63.766;2022-07-23T15:42:12;16.10;52.40